sensor_id;sensor_type;location;lat;lon;timestamp;temperature;humidity
22192;DHT22;11261;52.456;10.850;2023-06-14T00:01:04;15.50;92.80
22192;DHT22;11261;52.456;10.850;2023-06-14T00:03:33;15.40;92.70
22192;DHT22;11261;52.456;10.850;2023-06-14T00:06:03;15.40;92.70
22192;DHT22;11261;52.456;10.850;2023-06-14T00:08:31;15.40;92.90
22192;DHT22;11261;52.456;10.850;2023-06-14T00:11:00;15.30;93.10
22192;DHT22;11261;52.456;10.850;2023-06-14T00:13:28;15.30;92.20
22192;DHT22;11261;52.456;10.850;2023-06-14T00:15:56;15.30;91.80
22192;DHT22;11261;52.456;10.850;2023-06-14T00:18:25;15.40;91.90
22192;DHT22;11261;52.456;10.850;2023-06-14T00:20:56;15.40;91.20
22192;DHT22;11261;52.456;10.850;2023-06-14T00:23:26;15.50;90.80
22192;DHT22;11261;52.456;10.850;2023-06-14T00:25:54;15.30;91.10
22192;DHT22;11261;52.456;10.850;2023-06-14T00:28:23;15.20;92.30
22192;DHT22;11261;52.456;10.850;2023-06-14T00:30:51;15.30;89.40
22192;DHT22;11261;52.456;10.850;2023-06-14T00:33:19;15.20;91.70
22192;DHT22;11261;52.456;10.850;2023-06-14T00:35:48;15.30;92.10
22192;DHT22;11261;52.456;10.850;2023-06-14T00:38:16;15.00;93.60
22192;DHT22;11261;52.456;10.850;2023-06-14T00:40:46;15.00;93.80
22192;DHT22;11261;52.456;10.850;2023-06-14T00:43:15;15.00;93.60
22192;DHT22;11261;52.456;10.850;2023-06-14T00:45:43;15.20;93.50
22192;DHT22;11261;52.456;10.850;2023-06-14T00:48:11;15.40;92.40
22192;DHT22;11261;52.456;10.850;2023-06-14T00:50:41;15.50;91.70
22192;DHT22;11261;52.456;10.850;2023-06-14T00:53:12;15.60;92.60
22192;DHT22;11261;52.456;10.850;2023-06-14T00:55:42;15.60;92.30
22192;DHT22;11261;52.456;10.850;2023-06-14T00:58:12;15.50;92.80
22192;DHT22;11261;52.456;10.850;2023-06-14T01:00:40;15.50;93.10
22192;DHT22;11261;52.456;10.850;2023-06-14T01:03:09;15.40;93.00
22192;DHT22;11261;52.456;10.850;2023-06-14T01:05:40;15.20;93.70
22192;DHT22;11261;52.456;10.850;2023-06-14T01:08:19;15.30;91.70
22192;DHT22;11261;52.456;10.850;2023-06-14T01:10:56;15.00;93.80
22192;DHT22;11261;52.456;10.850;2023-06-14T01:13:35;14.90;94.20
22192;DHT22;11261;52.456;10.850;2023-06-14T01:16:05;14.80;94.40
22192;DHT22;11261;52.456;10.850;2023-06-14T01:18:34;14.80;93.40
22192;DHT22;11261;52.456;10.850;2023-06-14T01:21:03;14.90;94.00
22192;DHT22;11261;52.456;10.850;2023-06-14T01:23:34;14.80;94.80
22192;DHT22;11261;52.456;10.850;2023-06-14T01:26:21;14.70;95.40
22192;DHT22;11261;52.456;10.850;2023-06-14T01:28:50;14.80;95.00
22192;DHT22;11261;52.456;10.850;2023-06-14T01:31:20;14.70;95.00
22192;DHT22;11261;52.456;10.850;2023-06-14T01:33:50;14.40;96.20
22192;DHT22;11261;52.456;10.850;2023-06-14T01:36:19;14.40;94.90
22192;DHT22;11261;52.456;10.850;2023-06-14T01:38:50;14.30;95.80
22192;DHT22;11261;52.456;10.850;2023-06-14T01:41:21;14.40;94.20
22192;DHT22;11261;52.456;10.850;2023-06-14T01:43:50;14.40;94.50
22192;DHT22;11261;52.456;10.850;2023-06-14T01:46:20;14.30;94.80
22192;DHT22;11261;52.456;10.850;2023-06-14T01:48:49;14.30;92.30
22192;DHT22;11261;52.456;10.850;2023-06-14T01:51:18;14.30;91.50
22192;DHT22;11261;52.456;10.850;2023-06-14T01:53:46;14.20;92.20
22192;DHT22;11261;52.456;10.850;2023-06-14T01:56:17;14.30;92.60
22192;DHT22;11261;52.456;10.850;2023-06-14T01:58:45;14.30;96.10
22192;DHT22;11261;52.456;10.850;2023-06-14T02:01:13;14.10;95.80
22192;DHT22;11261;52.456;10.850;2023-06-14T02:03:43;14.00;95.30
22192;DHT22;11261;52.456;10.850;2023-06-14T02:06:11;13.90;95.70
22192;DHT22;11261;52.456;10.850;2023-06-14T02:08:40;13.90;98.30
22192;DHT22;11261;52.456;10.850;2023-06-14T02:11:08;13.90;93.50
22192;DHT22;11261;52.456;10.850;2023-06-14T02:13:38;14.00;97.00
22192;DHT22;11261;52.456;10.850;2023-06-14T02:16:06;14.00;96.80
22192;DHT22;11261;52.456;10.850;2023-06-14T02:18:34;13.70;99.30
22192;DHT22;11261;52.456;10.850;2023-06-14T02:21:03;13.70;98.80
22192;DHT22;11261;52.456;10.850;2023-06-14T02:23:31;13.70;98.00
22192;DHT22;11261;52.456;10.850;2023-06-14T02:26:01;13.70;95.00
22192;DHT22;11261;52.456;10.850;2023-06-14T02:28:30;13.70;97.30
22192;DHT22;11261;52.456;10.850;2023-06-14T02:31:00;13.60;98.00
22192;DHT22;11261;52.456;10.850;2023-06-14T02:33:28;13.50;96.70
22192;DHT22;11261;52.456;10.850;2023-06-14T02:35:57;13.50;99.90
22192;DHT22;11261;52.456;10.850;2023-06-14T02:38:25;13.40;96.70
22192;DHT22;11261;52.456;10.850;2023-06-14T02:40:53;13.40;99.00
22192;DHT22;11261;52.456;10.850;2023-06-14T02:43:22;13.60;99.90
22192;DHT22;11261;52.456;10.850;2023-06-14T02:45:50;13.60;99.60
22192;DHT22;11261;52.456;10.850;2023-06-14T02:48:20;13.60;97.70
22192;DHT22;11261;52.456;10.850;2023-06-14T02:50:48;13.60;98.90
22192;DHT22;11261;52.456;10.850;2023-06-14T02:53:17;13.60;99.70
22192;DHT22;11261;52.456;10.850;2023-06-14T02:55:45;13.40;99.90
22192;DHT22;11261;52.456;10.850;2023-06-14T02:58:14;13.40;99.90
22192;DHT22;11261;52.456;10.850;2023-06-14T03:00:42;13.30;99.90
22192;DHT22;11261;52.456;10.850;2023-06-14T03:03:11;13.20;99.90
22192;DHT22;11261;52.456;10.850;2023-06-14T03:05:44;13.20;99.90
22192;DHT22;11261;52.456;10.850;2023-06-14T03:08:14;13.10;99.90
22192;DHT22;11261;52.456;10.850;2023-06-14T03:10:44;13.10;99.90
22192;DHT22;11261;52.456;10.850;2023-06-14T03:13:12;13.10;99.90
22192;DHT22;11261;52.456;10.850;2023-06-14T03:15:41;13.20;99.90
22192;DHT22;11261;52.456;10.850;2023-06-14T03:18:11;13.20;99.90
22192;DHT22;11261;52.456;10.850;2023-06-14T03:20:40;13.20;96.80
22192;DHT22;11261;52.456;10.850;2023-06-14T03:23:10;13.20;99.10
22192;DHT22;11261;52.456;10.850;2023-06-14T03:25:39;13.30;99.90
22192;DHT22;11261;52.456;10.850;2023-06-14T03:28:09;13.10;99.90
22192;DHT22;11261;52.456;10.850;2023-06-14T03:30:37;13.00;99.90
22192;DHT22;11261;52.456;10.850;2023-06-14T03:33:05;12.80;99.90
22192;DHT22;11261;52.456;10.850;2023-06-14T03:35:34;12.90;99.90
22192;DHT22;11261;52.456;10.850;2023-06-14T03:38:02;12.80;99.90
22192;DHT22;11261;52.456;10.850;2023-06-14T03:40:32;12.80;99.90
22192;DHT22;11261;52.456;10.850;2023-06-14T03:43:00;13.30;99.90
22192;DHT22;11261;52.456;10.850;2023-06-14T03:45:28;13.10;99.90
22192;DHT22;11261;52.456;10.850;2023-06-14T03:47:57;13.50;99.90
22192;DHT22;11261;52.456;10.850;2023-06-14T03:50:28;13.40;99.90
22192;DHT22;11261;52.456;10.850;2023-06-14T03:52:56;13.30;99.90
22192;DHT22;11261;52.456;10.850;2023-06-14T03:55:24;13.40;99.90
22192;DHT22;11261;52.456;10.850;2023-06-14T03:57:58;13.50;99.90
22192;DHT22;11261;52.456;10.850;2023-06-14T04:00:27;13.60;99.90
22192;DHT22;11261;52.456;10.850;2023-06-14T04:02:55;13.50;99.90
22192;DHT22;11261;52.456;10.850;2023-06-14T04:05:24;13.60;99.90
22192;DHT22;11261;52.456;10.850;2023-06-14T04:07:53;13.50;99.90
22192;DHT22;11261;52.456;10.850;2023-06-14T04:10:23;13.70;99.90
22192;DHT22;11261;52.456;10.850;2023-06-14T04:12:51;13.60;99.90
22192;DHT22;11261;52.456;10.850;2023-06-14T04:15:21;13.80;99.90
22192;DHT22;11261;52.456;10.850;2023-06-14T04:17:50;13.60;99.90
22192;DHT22;11261;52.456;10.850;2023-06-14T04:20:18;13.40;99.90
22192;DHT22;11261;52.456;10.850;2023-06-14T04:22:47;13.80;99.90
22192;DHT22;11261;52.456;10.850;2023-06-14T04:25:16;13.80;99.90
22192;DHT22;11261;52.456;10.850;2023-06-14T04:27:50;13.60;99.90
22192;DHT22;11261;52.456;10.850;2023-06-14T04:30:20;13.80;99.90
22192;DHT22;11261;52.456;10.850;2023-06-14T04:32:54;13.90;99.90
22192;DHT22;11261;52.456;10.850;2023-06-14T04:35:23;13.60;99.90
22192;DHT22;11261;52.456;10.850;2023-06-14T04:37:52;13.70;99.90
22192;DHT22;11261;52.456;10.850;2023-06-14T04:40:20;13.80;99.90
22192;DHT22;11261;52.456;10.850;2023-06-14T04:42:48;13.70;99.90
22192;DHT22;11261;52.456;10.850;2023-06-14T04:45:18;13.60;99.90
22192;DHT22;11261;52.456;10.850;2023-06-14T04:47:47;13.90;99.90
22192;DHT22;11261;52.456;10.850;2023-06-14T04:50:16;14.00;99.90
22192;DHT22;11261;52.456;10.850;2023-06-14T04:52:45;13.80;99.90
22192;DHT22;11261;52.456;10.850;2023-06-14T04:55:18;13.80;99.90
22192;DHT22;11261;52.456;10.850;2023-06-14T04:57:47;13.50;99.90
22192;DHT22;11261;52.456;10.850;2023-06-14T05:00:16;14.20;99.90
22192;DHT22;11261;52.456;10.850;2023-06-14T05:02:44;14.20;99.90
22192;DHT22;11261;52.456;10.850;2023-06-14T05:05:15;14.80;99.90
22192;DHT22;11261;52.456;10.850;2023-06-14T05:07:44;15.20;99.90
22192;DHT22;11261;52.456;10.850;2023-06-14T05:10:13;15.70;99.90
22192;DHT22;11261;52.456;10.850;2023-06-14T05:12:41;16.20;99.90
22192;DHT22;11261;52.456;10.850;2023-06-14T05:15:10;15.20;99.90
22192;DHT22;11261;52.456;10.850;2023-06-14T05:17:39;15.90;99.90
22192;DHT22;11261;52.456;10.850;2023-06-14T05:20:08;16.50;99.90
22192;DHT22;11261;52.456;10.850;2023-06-14T05:22:39;17.10;99.90
22192;DHT22;11261;52.456;10.850;2023-06-14T05:25:08;17.60;99.90
22192;DHT22;11261;52.456;10.850;2023-06-14T05:27:36;17.20;99.90
22192;DHT22;11261;52.456;10.850;2023-06-14T05:30:06;17.80;98.60
22192;DHT22;11261;52.456;10.850;2023-06-14T05:32:35;17.70;98.60
22192;DHT22;11261;52.456;10.850;2023-06-14T05:35:03;17.70;99.90
22192;DHT22;11261;52.456;10.850;2023-06-14T05:37:32;16.90;99.90
22192;DHT22;11261;52.456;10.850;2023-06-14T05:40:03;18.00;99.50
22192;DHT22;11261;52.456;10.850;2023-06-14T05:42:33;17.70;99.20
22192;DHT22;11261;52.456;10.850;2023-06-14T05:45:01;17.80;99.90
22192;DHT22;11261;52.456;10.850;2023-06-14T05:47:29;17.40;99.90
22192;DHT22;11261;52.456;10.850;2023-06-14T05:49:58;17.80;99.20
22192;DHT22;11261;52.456;10.850;2023-06-14T05:52:26;18.60;98.30
22192;DHT22;11261;52.456;10.850;2023-06-14T05:54:55;17.80;98.60
22192;DHT22;11261;52.456;10.850;2023-06-14T05:57:24;17.60;99.70
22192;DHT22;11261;52.456;10.850;2023-06-14T05:59:53;18.40;98.10
22192;DHT22;11261;52.456;10.850;2023-06-14T06:02:21;18.80;97.60
22192;DHT22;11261;52.456;10.850;2023-06-14T06:04:50;19.10;96.80
22192;DHT22;11261;52.456;10.850;2023-06-14T06:07:18;17.70;98.30
22192;DHT22;11261;52.456;10.850;2023-06-14T06:09:47;17.50;99.90
22192;DHT22;11261;52.456;10.850;2023-06-14T06:12:15;18.50;97.10
22192;DHT22;11261;52.456;10.850;2023-06-14T06:14:45;18.10;98.70
22192;DHT22;11261;52.456;10.850;2023-06-14T06:17:13;17.80;99.30
22192;DHT22;11261;52.456;10.850;2023-06-14T06:19:41;18.30;97.90
22192;DHT22;11261;52.456;10.850;2023-06-14T06:22:10;18.20;99.10
22192;DHT22;11261;52.456;10.850;2023-06-14T06:24:38;18.50;98.30
22192;DHT22;11261;52.456;10.850;2023-06-14T06:27:08;20.20;95.10
22192;DHT22;11261;52.456;10.850;2023-06-14T06:29:37;17.90;97.90
22192;DHT22;11261;52.456;10.850;2023-06-14T06:32:07;17.90;98.00
22192;DHT22;11261;52.456;10.850;2023-06-14T06:34:36;19.40;96.30
22192;DHT22;11261;52.456;10.850;2023-06-14T06:37:04;19.50;96.50
22192;DHT22;11261;52.456;10.850;2023-06-14T06:39:33;19.40;95.80
22192;DHT22;11261;52.456;10.850;2023-06-14T06:42:02;18.60;97.60
22192;DHT22;11261;52.456;10.850;2023-06-14T06:44:30;20.00;95.40
22192;DHT22;11261;52.456;10.850;2023-06-14T06:46:59;20.30;95.30
22192;DHT22;11261;52.456;10.850;2023-06-14T06:49:28;19.60;95.80
22192;DHT22;11261;52.456;10.850;2023-06-14T06:52:00;19.30;96.50
22192;DHT22;11261;52.456;10.850;2023-06-14T06:54:29;20.30;94.10
22192;DHT22;11261;52.456;10.850;2023-06-14T06:56:58;21.20;92.40
22192;DHT22;11261;52.456;10.850;2023-06-14T06:59:27;21.40;93.50
22192;DHT22;11261;52.456;10.850;2023-06-14T07:01:55;21.10;92.10
22192;DHT22;11261;52.456;10.850;2023-06-14T07:04:24;20.30;93.30
22192;DHT22;11261;52.456;10.850;2023-06-14T07:06:54;20.30;93.30
22192;DHT22;11261;52.456;10.850;2023-06-14T07:09:22;20.00;94.70
22192;DHT22;11261;52.456;10.850;2023-06-14T07:11:51;20.40;92.10
22192;DHT22;11261;52.456;10.850;2023-06-14T07:14:20;21.40;91.90
22192;DHT22;11261;52.456;10.850;2023-06-14T07:16:50;22.30;90.60
22192;DHT22;11261;52.456;10.850;2023-06-14T07:19:18;22.30;89.20
22192;DHT22;11261;52.456;10.850;2023-06-14T07:21:47;22.10;88.90
22192;DHT22;11261;52.456;10.850;2023-06-14T07:24:16;20.80;90.20
22192;DHT22;11261;52.456;10.850;2023-06-14T07:26:45;22.10;90.70
22192;DHT22;11261;52.456;10.850;2023-06-14T07:29:13;21.70;89.90
22192;DHT22;11261;52.456;10.850;2023-06-14T07:31:41;21.80;88.10
22192;DHT22;11261;52.456;10.850;2023-06-14T07:34:09;23.10;82.80
22192;DHT22;11261;52.456;10.850;2023-06-14T07:36:37;21.90;83.80
22192;DHT22;11261;52.456;10.850;2023-06-14T07:39:06;22.70;85.40
22192;DHT22;11261;52.456;10.850;2023-06-14T07:41:36;22.70;83.40
22192;DHT22;11261;52.456;10.850;2023-06-14T07:44:04;23.30;81.70
22192;DHT22;11261;52.456;10.850;2023-06-14T07:46:32;20.90;87.60
22192;DHT22;11261;52.456;10.850;2023-06-14T07:49:01;22.60;85.60
22192;DHT22;11261;52.456;10.850;2023-06-14T07:51:30;22.70;81.20
22192;DHT22;11261;52.456;10.850;2023-06-14T07:53:59;21.80;81.80
22192;DHT22;11261;52.456;10.850;2023-06-14T07:56:28;22.30;84.70
22192;DHT22;11261;52.456;10.850;2023-06-14T07:58:57;22.40;81.10
22192;DHT22;11261;52.456;10.850;2023-06-14T08:01:25;20.50;87.80
22192;DHT22;11261;52.456;10.850;2023-06-14T08:03:55;23.60;84.30
22192;DHT22;11261;52.456;10.850;2023-06-14T08:06:23;25.20;76.50
22192;DHT22;11261;52.456;10.850;2023-06-14T08:08:52;24.00;79.10
22192;DHT22;11261;52.456;10.850;2023-06-14T08:11:20;23.70;81.90
22192;DHT22;11261;52.456;10.850;2023-06-14T08:13:51;23.60;80.00
22192;DHT22;11261;52.456;10.850;2023-06-14T08:16:20;23.10;80.50
22192;DHT22;11261;52.456;10.850;2023-06-14T08:18:49;24.40;75.30
22192;DHT22;11261;52.456;10.850;2023-06-14T08:21:17;22.70;78.40
22192;DHT22;11261;52.456;10.850;2023-06-14T08:23:46;23.10;77.00
22192;DHT22;11261;52.456;10.850;2023-06-14T08:26:14;21.30;78.30
22192;DHT22;11261;52.456;10.850;2023-06-14T08:28:42;23.20;78.90
22192;DHT22;11261;52.456;10.850;2023-06-14T08:31:10;23.20;76.20
22192;DHT22;11261;52.456;10.850;2023-06-14T08:33:41;22.20;79.30
22192;DHT22;11261;52.456;10.850;2023-06-14T08:36:10;22.50;82.00
22192;DHT22;11261;52.456;10.850;2023-06-14T08:38:39;22.10;78.40
22192;DHT22;11261;52.456;10.850;2023-06-14T08:41:08;22.40;78.70
22192;DHT22;11261;52.456;10.850;2023-06-14T08:43:40;21.10;81.80
22192;DHT22;11261;52.456;10.850;2023-06-14T08:46:08;22.50;82.30
22192;DHT22;11261;52.456;10.850;2023-06-14T08:48:40;22.00;81.60
22192;DHT22;11261;52.456;10.850;2023-06-14T08:51:11;21.80;81.10
22192;DHT22;11261;52.456;10.850;2023-06-14T08:53:41;22.10;81.80
22192;DHT22;11261;52.456;10.850;2023-06-14T08:56:12;23.50;77.90
22192;DHT22;11261;52.456;10.850;2023-06-14T08:58:43;23.60;75.60
22192;DHT22;11261;52.456;10.850;2023-06-14T09:01:12;23.30;76.80
22192;DHT22;11261;52.456;10.850;2023-06-14T09:03:43;24.40;74.80
22192;DHT22;11261;52.456;10.850;2023-06-14T09:06:11;25.90;72.40
22192;DHT22;11261;52.456;10.850;2023-06-14T09:08:43;23.70;71.00
22192;DHT22;11261;52.456;10.850;2023-06-14T09:11:12;23.50;75.20
22192;DHT22;11261;52.456;10.850;2023-06-14T09:13:41;25.10;70.00
22192;DHT22;11261;52.456;10.850;2023-06-14T09:16:10;22.70;76.10
22192;DHT22;11261;52.456;10.850;2023-06-14T09:18:40;25.30;73.00
22192;DHT22;11261;52.456;10.850;2023-06-14T09:21:12;24.40;72.00
22192;DHT22;11261;52.456;10.850;2023-06-14T09:23:41;24.30;72.50
22192;DHT22;11261;52.456;10.850;2023-06-14T09:26:11;23.40;75.60
22192;DHT22;11261;52.456;10.850;2023-06-14T09:28:41;23.20;77.10
22192;DHT22;11261;52.456;10.850;2023-06-14T09:31:11;24.00;77.10
22192;DHT22;11261;52.456;10.850;2023-06-14T09:33:41;23.90;76.00
22192;DHT22;11261;52.456;10.850;2023-06-14T09:36:17;23.20;78.00
22192;DHT22;11261;52.456;10.850;2023-06-14T09:38:52;22.90;79.90
22192;DHT22;11261;52.456;10.850;2023-06-14T09:41:21;23.40;79.60
22192;DHT22;11261;52.456;10.850;2023-06-14T09:43:59;24.30;74.00
22192;DHT22;11261;52.456;10.850;2023-06-14T09:46:35;23.50;77.60
22192;DHT22;11261;52.456;10.850;2023-06-14T09:49:05;25.00;74.50
22192;DHT22;11261;52.456;10.850;2023-06-14T09:51:40;25.30;74.00
22192;DHT22;11261;52.456;10.850;2023-06-14T09:54:15;24.90;74.90
22192;DHT22;11261;52.456;10.850;2023-06-14T09:56:45;25.80;72.40
22192;DHT22;11261;52.456;10.850;2023-06-14T09:59:16;24.60;75.00
22192;DHT22;11261;52.456;10.850;2023-06-14T10:01:48;24.20;75.30
22192;DHT22;11261;52.456;10.850;2023-06-14T10:04:19;25.20;75.40
22192;DHT22;11261;52.456;10.850;2023-06-14T10:06:52;24.40;75.20
22192;DHT22;11261;52.456;10.850;2023-06-14T10:09:22;24.40;75.40
22192;DHT22;11261;52.456;10.850;2023-06-14T10:11:50;24.50;76.80
22192;DHT22;11261;52.456;10.850;2023-06-14T10:14:19;25.30;73.60
22192;DHT22;11261;52.456;10.850;2023-06-14T10:16:53;25.60;73.10
22192;DHT22;11261;52.456;10.850;2023-06-14T10:19:29;24.50;77.00
22192;DHT22;11261;52.456;10.850;2023-06-14T10:22:08;25.20;74.10
22192;DHT22;11261;52.456;10.850;2023-06-14T10:24:41;24.30;78.30
22192;DHT22;11261;52.456;10.850;2023-06-14T10:27:11;22.80;80.20
22192;DHT22;11261;52.456;10.850;2023-06-14T10:30:02;21.90;85.10
22192;DHT22;11261;52.456;10.850;2023-06-14T10:32:32;23.80;78.70
22192;DHT22;11261;52.456;10.850;2023-06-14T10:35:05;23.90;78.50
22192;DHT22;11261;52.456;10.850;2023-06-14T10:37:35;24.50;77.40
22192;DHT22;11261;52.456;10.850;2023-06-14T10:40:05;24.80;75.00
22192;DHT22;11261;52.456;10.850;2023-06-14T10:42:35;23.10;80.00
22192;DHT22;11261;52.456;10.850;2023-06-14T10:45:04;23.10;79.50
22192;DHT22;11261;52.456;10.850;2023-06-14T10:47:34;24.80;76.00
22192;DHT22;11261;52.456;10.850;2023-06-14T10:50:05;24.40;76.90
22192;DHT22;11261;52.456;10.850;2023-06-14T10:52:39;23.70;80.50
22192;DHT22;11261;52.456;10.850;2023-06-14T10:55:13;24.90;75.60
22192;DHT22;11261;52.456;10.850;2023-06-14T10:57:44;23.10;80.30
22192;DHT22;11261;52.456;10.850;2023-06-14T11:00:19;23.50;82.60
22192;DHT22;11261;52.456;10.850;2023-06-14T11:05:56;23.80;80.10
22192;DHT22;11261;52.456;10.850;2023-06-14T11:08:40;23.10;80.10
22192;DHT22;11261;52.456;10.850;2023-06-14T11:11:13;24.00;78.40
22192;DHT22;11261;52.456;10.850;2023-06-14T11:13:44;24.10;75.10
22192;DHT22;11261;52.456;10.850;2023-06-14T11:16:15;25.50;71.60
22192;DHT22;11261;52.456;10.850;2023-06-14T11:18:44;24.40;71.60
22192;DHT22;11261;52.456;10.850;2023-06-14T11:21:16;22.90;78.20
22192;DHT22;11261;52.456;10.850;2023-06-14T11:23:50;24.10;74.30
22192;DHT22;11261;52.456;10.850;2023-06-14T11:26:26;23.40;77.00
22192;DHT22;11261;52.456;10.850;2023-06-14T11:28:56;23.90;73.20
22192;DHT22;11261;52.456;10.850;2023-06-14T11:31:25;24.00;74.30
22192;DHT22;11261;52.456;10.850;2023-06-14T11:33:54;23.80;75.30
22192;DHT22;11261;52.456;10.850;2023-06-14T11:36:26;24.90;72.20
22192;DHT22;11261;52.456;10.850;2023-06-14T11:39:02;25.00;72.30
22192;DHT22;11261;52.456;10.850;2023-06-14T11:41:34;24.90;71.60
22192;DHT22;11261;52.456;10.850;2023-06-14T11:44:04;25.50;68.70
22192;DHT22;11261;52.456;10.850;2023-06-14T11:46:32;24.80;71.50
22192;DHT22;11261;52.456;10.850;2023-06-14T11:49:01;25.80;69.00
22192;DHT22;11261;52.456;10.850;2023-06-14T11:51:32;25.30;67.40
22192;DHT22;11261;52.456;10.850;2023-06-14T11:54:04;24.00;72.20
22192;DHT22;11261;52.456;10.850;2023-06-14T11:56:33;23.70;72.90
22192;DHT22;11261;52.456;10.850;2023-06-14T11:59:02;24.60;71.00
22192;DHT22;11261;52.456;10.850;2023-06-14T12:01:36;23.80;72.10
22192;DHT22;11261;52.456;10.850;2023-06-14T12:04:05;25.00;70.80
22192;DHT22;11261;52.456;10.850;2023-06-14T12:06:34;23.90;73.30
22192;DHT22;11261;52.456;10.850;2023-06-14T12:09:05;23.80;72.30
22192;DHT22;11261;52.456;10.850;2023-06-14T12:11:40;23.20;71.20
22192;DHT22;11261;52.456;10.850;2023-06-14T12:14:09;23.10;73.40
22192;DHT22;11261;52.456;10.850;2023-06-14T12:16:39;23.60;73.10
22192;DHT22;11261;52.456;10.850;2023-06-14T12:19:13;23.60;73.40
22192;DHT22;11261;52.456;10.850;2023-06-14T12:21:42;23.70;73.10
22192;DHT22;11261;52.456;10.850;2023-06-14T12:24:12;23.70;70.00
22192;DHT22;11261;52.456;10.850;2023-06-14T12:26:41;24.40;70.70
22192;DHT22;11261;52.456;10.850;2023-06-14T12:29:10;24.00;70.00
22192;DHT22;11261;52.456;10.850;2023-06-14T12:31:40;23.50;72.30
22192;DHT22;11261;52.456;10.850;2023-06-14T12:34:09;24.20;69.70
22192;DHT22;11261;52.456;10.850;2023-06-14T12:36:38;24.00;71.40
22192;DHT22;11261;52.456;10.850;2023-06-14T12:39:13;24.60;68.90
22192;DHT22;11261;52.456;10.850;2023-06-14T12:41:41;24.40;69.80
22192;DHT22;11261;52.456;10.850;2023-06-14T12:44:10;24.30;70.90
22192;DHT22;11261;52.456;10.850;2023-06-14T12:46:39;24.10;70.80
22192;DHT22;11261;52.456;10.850;2023-06-14T12:49:09;24.50;70.90
22192;DHT22;11261;52.456;10.850;2023-06-14T12:51:38;24.60;70.20
22192;DHT22;11261;52.456;10.850;2023-06-14T12:54:07;24.00;72.30
22192;DHT22;11261;52.456;10.850;2023-06-14T12:56:37;23.90;71.50
22192;DHT22;11261;52.456;10.850;2023-06-14T12:59:06;24.10;70.80
22192;DHT22;11261;52.456;10.850;2023-06-14T13:01:34;24.20;70.40
22192;DHT22;11261;52.456;10.850;2023-06-14T13:04:03;24.10;71.30
22192;DHT22;11261;52.456;10.850;2023-06-14T13:06:31;24.30;70.60
22192;DHT22;11261;52.456;10.850;2023-06-14T13:09:00;24.60;69.50
22192;DHT22;11261;52.456;10.850;2023-06-14T13:11:28;24.30;68.70
22192;DHT22;11261;52.456;10.850;2023-06-14T13:13:58;23.90;71.40
22192;DHT22;11261;52.456;10.850;2023-06-14T13:16:39;23.40;70.30
22192;DHT22;11261;52.456;10.850;2023-06-14T13:19:08;23.50;71.30
22192;DHT22;11261;52.456;10.850;2023-06-14T13:21:36;24.20;71.90
22192;DHT22;11261;52.456;10.850;2023-06-14T13:24:05;24.60;68.90
22192;DHT22;11261;52.456;10.850;2023-06-14T13:26:34;25.00;67.90
22192;DHT22;11261;52.456;10.850;2023-06-14T13:29:03;25.70;68.20
22192;DHT22;11261;52.456;10.850;2023-06-14T13:31:32;26.00;66.40
22192;DHT22;11261;52.456;10.850;2023-06-14T13:34:00;26.40;64.40
22192;DHT22;11261;52.456;10.850;2023-06-14T13:36:29;25.30;66.30
22192;DHT22;11261;52.456;10.850;2023-06-14T13:38:57;25.60;65.80
22192;DHT22;11261;52.456;10.850;2023-06-14T13:41:26;25.80;64.30
22192;DHT22;11261;52.456;10.850;2023-06-14T13:43:58;24.20;67.90
22192;DHT22;11261;52.456;10.850;2023-06-14T13:46:27;24.80;68.70
22192;DHT22;11261;52.456;10.850;2023-06-14T13:48:56;25.80;66.60
22192;DHT22;11261;52.456;10.850;2023-06-14T13:51:25;26.60;64.30
22192;DHT22;11261;52.456;10.850;2023-06-14T13:53:53;26.00;62.70
22192;DHT22;11261;52.456;10.850;2023-06-14T13:56:22;25.00;66.50
22192;DHT22;11261;52.456;10.850;2023-06-14T13:58:51;24.60;67.50
22192;DHT22;11261;52.456;10.850;2023-06-14T14:01:20;24.40;68.70
22192;DHT22;11261;52.456;10.850;2023-06-14T14:03:50;24.20;67.80
22192;DHT22;11261;52.456;10.850;2023-06-14T14:06:18;24.30;68.00
22192;DHT22;11261;52.456;10.850;2023-06-14T14:08:47;24.00;67.10
22192;DHT22;11261;52.456;10.850;2023-06-14T14:11:15;24.40;67.50
22192;DHT22;11261;52.456;10.850;2023-06-14T14:13:45;25.30;64.80
22192;DHT22;11261;52.456;10.850;2023-06-14T14:16:14;25.70;63.10
22192;DHT22;11261;52.456;10.850;2023-06-14T14:18:42;25.30;65.00
22192;DHT22;11261;52.456;10.850;2023-06-14T14:21:12;25.00;65.90
22192;DHT22;11261;52.456;10.850;2023-06-14T14:23:41;24.20;67.00
22192;DHT22;11261;52.456;10.850;2023-06-14T14:26:09;24.30;69.10
22192;DHT22;11261;52.456;10.850;2023-06-14T14:28:37;24.10;69.70
22192;DHT22;11261;52.456;10.850;2023-06-14T14:31:06;24.90;68.40
22192;DHT22;11261;52.456;10.850;2023-06-14T14:33:34;24.30;68.00
22192;DHT22;11261;52.456;10.850;2023-06-14T14:36:03;25.30;65.90
22192;DHT22;11261;52.456;10.850;2023-06-14T14:38:34;25.30;66.00
22192;DHT22;11261;52.456;10.850;2023-06-14T14:41:03;25.80;65.60
22192;DHT22;11261;52.456;10.850;2023-06-14T14:43:31;26.00;64.20
22192;DHT22;11261;52.456;10.850;2023-06-14T14:45:59;26.00;65.50
22192;DHT22;11261;52.456;10.850;2023-06-14T14:48:28;26.00;63.20
22192;DHT22;11261;52.456;10.850;2023-06-14T14:50:56;24.60;65.70
22192;DHT22;11261;52.456;10.850;2023-06-14T14:53:25;24.80;65.50
22192;DHT22;11261;52.456;10.850;2023-06-14T14:55:54;24.40;65.90
22192;DHT22;11261;52.456;10.850;2023-06-14T14:58:23;24.20;68.10
22192;DHT22;11261;52.456;10.850;2023-06-14T15:00:52;24.80;67.40
22192;DHT22;11261;52.456;10.850;2023-06-14T15:03:20;24.20;66.20
22192;DHT22;11261;52.456;10.850;2023-06-14T15:05:49;23.70;69.00
22192;DHT22;11261;52.456;10.850;2023-06-14T15:08:17;24.00;67.50
22192;DHT22;11261;52.456;10.850;2023-06-14T15:10:46;24.30;66.50
22192;DHT22;11261;52.456;10.850;2023-06-14T15:13:16;24.80;64.50
22192;DHT22;11261;52.456;10.850;2023-06-14T15:15:45;24.70;65.90
22192;DHT22;11261;52.456;10.850;2023-06-14T15:18:13;23.90;68.30
22192;DHT22;11261;52.456;10.850;2023-06-14T15:20:42;23.90;68.00
22192;DHT22;11261;52.456;10.850;2023-06-14T15:23:10;24.00;68.00
22192;DHT22;11261;52.456;10.850;2023-06-14T15:25:41;23.50;69.70
22192;DHT22;11261;52.456;10.850;2023-06-14T15:28:09;23.30;70.80
22192;DHT22;11261;52.456;10.850;2023-06-14T15:30:39;23.40;70.50
22192;DHT22;11261;52.456;10.850;2023-06-14T15:33:08;25.30;65.80